sensor_id;sensor_type;location;lat;lon;timestamp;pressure;altitude;pressure_sealevel;temperature;humidity
47430;BME280;33181;49.246;7.372;2023-05-24T00:00:01;99258.41;;;12.49;75.10
47430;BME280;33181;49.246;7.372;2023-05-24T00:02:27;99268.13;;;12.49;75.24
47430;BME280;33181;49.246;7.372;2023-05-24T00:04:53;99260.56;;;12.44;75.21
47430;BME280;33181;49.246;7.372;2023-05-24T00:07:19;99269.91;;;12.37;75.40
47430;BME280;33181;49.246;7.372;2023-05-24T00:09:45;99263.94;;;12.35;75.67
47430;BME280;33181;49.246;7.372;2023-05-24T00:12:10;99265.72;;;12.35;75.62
47430;BME280;33181;49.246;7.372;2023-05-24T00:14:36;99262.41;;;12.33;75.44
47430;BME280;33181;49.246;7.372;2023-05-24T00:17:03;99256.06;;;12.24;75.87
47430;BME280;33181;49.246;7.372;2023-05-24T00:19:29;99253.44;;;12.24;75.86
47430;BME280;33181;49.246;7.372;2023-05-24T00:21:55;99255.91;;;12.25;75.83
47430;BME280;33181;49.246;7.372;2023-05-24T00:24:21;99251.72;;;12.23;75.92
47430;BME280;33181;49.246;7.372;2023-05-24T00:26:46;99249.22;;;12.21;75.92
47430;BME280;33181;49.246;7.372;2023-05-24T00:29:13;99240.75;;;12.18;76.06
47430;BME280;33181;49.246;7.372;2023-05-24T00:31:39;99243.38;;;12.18;75.95
47430;BME280;33181;49.246;7.372;2023-05-24T00:34:05;99242.88;;;12.13;76.15
47430;BME280;33181;49.246;7.372;2023-05-24T00:36:31;99245.31;;;12.04;76.12
47430;BME280;33181;49.246;7.372;2023-05-24T00:38:57;99240.88;;;11.94;76.69
47430;BME280;33181;49.246;7.372;2023-05-24T00:41:23;99238.84;;;11.86;77.55
47430;BME280;33181;49.246;7.372;2023-05-24T00:43:50;99237.78;;;11.89;77.51
47430;BME280;33181;49.246;7.372;2023-05-24T00:48:51;99227.84;;;11.92;76.91
47430;BME280;33181;49.246;7.372;2023-05-24T00:51:17;99221.25;;;11.87;77.02
47430;BME280;33181;49.246;7.372;2023-05-24T00:53:46;99221.56;;;11.82;77.34
47430;BME280;33181;49.246;7.372;2023-05-24T00:56:14;99216.53;;;11.79;77.47
47430;BME280;33181;49.246;7.372;2023-05-24T00:58:41;99217.28;;;11.81;77.33
47430;BME280;33181;49.246;7.372;2023-05-24T01:01:08;99222.06;;;11.76;76.90
47430;BME280;33181;49.246;7.372;2023-05-24T01:03:34;99218.72;;;11.74;77.11
47430;BME280;33181;49.246;7.372;2023-05-24T01:06:03;99216.91;;;11.74;77.07
47430;BME280;33181;49.246;7.372;2023-05-24T01:14:38;99223.03;;;11.64;76.90
47430;BME280;33181;49.246;7.372;2023-05-24T01:17:28;99231.03;;;11.62;77.37
47430;BME280;33181;49.246;7.372;2023-05-24T01:20:07;99225.16;;;11.58;77.36
47430;BME280;33181;49.246;7.372;2023-05-24T01:23:06;99234.84;;;11.58;77.52
47430;BME280;33181;49.246;7.372;2023-05-24T01:28:35;99251.84;;;11.54;77.48
47430;BME280;33181;49.246;7.372;2023-05-24T01:31:03;99247.66;;;11.51;77.40
47430;BME280;33181;49.246;7.372;2023-05-24T01:33:30;99261.38;;;11.44;77.27
47430;BME280;33181;49.246;7.372;2023-05-24T01:35:56;99255.72;;;11.37;77.49
47430;BME280;33181;49.246;7.372;2023-05-24T01:38:22;99252.28;;;11.36;77.27
47430;BME280;33181;49.246;7.372;2023-05-24T01:40:56;99241.25;;;11.31;77.08
47430;BME280;33181;49.246;7.372;2023-05-24T01:43:36;99250.09;;;11.30;77.36
47430;BME280;33181;49.246;7.372;2023-05-24T01:46:28;99253.19;;;11.24;77.58
47430;BME280;33181;49.246;7.372;2023-05-24T01:49:14;99262.59;;;11.16;77.42
47430;BME280;33181;49.246;7.372;2023-05-24T01:52:06;99264.53;;;11.13;77.97
47430;BME280;33181;49.246;7.372;2023-05-24T01:54:38;99261.41;;;11.08;77.63
47430;BME280;33181;49.246;7.372;2023-05-24T01:57:08;99257.81;;;11.09;77.71
47430;BME280;33181;49.246;7.372;2023-05-24T01:59:39;99263.06;;;11.09;77.63
47430;BME280;33181;49.246;7.372;2023-05-24T02:02:06;99262.13;;;11.10;77.82
47430;BME280;33181;49.246;7.372;2023-05-24T02:04:32;99256.63;;;11.13;77.78
47430;BME280;33181;49.246;7.372;2023-05-24T02:06:59;99255.56;;;11.16;77.84
47430;BME280;33181;49.246;7.372;2023-05-24T02:09:25;99259.97;;;11.16;77.55
47430;BME280;33181;49.246;7.372;2023-05-24T02:11:51;99258.75;;;11.08;77.57
47430;BME280;33181;49.246;7.372;2023-05-24T02:14:17;99255.63;;;11.03;77.92
47430;BME280;33181;49.246;7.372;2023-05-24T02:16:45;99269.03;;;11.00;77.92
47430;BME280;33181;49.246;7.372;2023-05-24T02:19:13;99270.91;;;10.98;78.18
47430;BME280;33181;49.246;7.372;2023-05-24T02:21:38;99273.31;;;11.01;78.09
47430;BME280;33181;49.246;7.372;2023-05-24T02:24:06;99267.09;;;11.02;77.46
47430;BME280;33181;49.246;7.372;2023-05-24T02:26:32;99264.22;;;10.94;77.36
47430;BME280;33181;49.246;7.372;2023-05-24T02:28:58;99262.44;;;10.95;77.67
47430;BME280;33181;49.246;7.372;2023-05-24T02:31:24;99267.47;;;10.98;77.69
47430;BME280;33181;49.246;7.372;2023-05-24T02:33:54;99272.81;;;10.96;77.53
47430;BME280;33181;49.246;7.372;2023-05-24T02:36:20;99275.22;;;10.99;77.08
47430;BME280;33181;49.246;7.372;2023-05-24T02:38:51;99277.13;;;10.97;76.86
47430;BME280;33181;49.246;7.372;2023-05-24T02:41:19;99264.22;;;10.94;76.87
47430;BME280;33181;49.246;7.372;2023-05-24T02:43:46;99264.00;;;10.97;77.33
47430;BME280;33181;49.246;7.372;2023-05-24T02:46:13;99264.09;;;10.96;77.26
47430;BME280;33181;49.246;7.372;2023-05-24T02:48:39;99254.41;;;10.96;77.57
47430;BME280;33181;49.246;7.372;2023-05-24T02:51:05;99251.09;;;10.94;77.95
47430;BME280;33181;49.246;7.372;2023-05-24T02:53:32;99248.22;;;10.97;78.39
47430;BME280;33181;49.246;7.372;2023-05-24T02:55:58;99257.56;;;11.01;78.42
47430;BME280;33181;49.246;7.372;2023-05-24T02:58:25;99241.03;;;10.99;78.43
47430;BME280;33181;49.246;7.372;2023-05-24T03:00:54;99244.19;;;11.04;78.50
47430;BME280;33181;49.246;7.372;2023-05-24T03:03:19;99239.41;;;11.09;78.70
47430;BME280;33181;49.246;7.372;2023-05-24T03:05:45;99237.50;;;11.11;78.47
47430;BME280;33181;49.246;7.372;2023-05-24T03:08:11;99241.56;;;11.16;78.35
47430;BME280;33181;49.246;7.372;2023-05-24T03:10:37;99240.41;;;11.20;78.46
47430;BME280;33181;49.246;7.372;2023-05-24T03:13:03;99239.31;;;11.22;78.59
47430;BME280;33181;49.246;7.372;2023-05-24T03:15:29;99241.72;;;11.25;78.44
47430;BME280;33181;49.246;7.372;2023-05-24T03:17:55;99238.16;;;11.26;78.18
47430;BME280;33181;49.246;7.372;2023-05-24T03:20:22;99242.69;;;11.24;78.05
47430;BME280;33181;49.246;7.372;2023-05-24T03:22:49;99245.31;;;11.24;78.26
47430;BME280;33181;49.246;7.372;2023-05-24T03:25:15;99245.44;;;11.23;77.25
47430;BME280;33181;49.246;7.372;2023-05-24T03:27:41;99249.00;;;11.22;77.10
47430;BME280;33181;49.246;7.372;2023-05-24T03:30:08;99245.44;;;11.23;76.63
47430;BME280;33181;49.246;7.372;2023-05-24T03:32:34;99249.00;;;11.22;76.93
47430;BME280;33181;49.246;7.372;2023-05-24T03:35:00;99253.31;;;11.23;77.00
47430;BME280;33181;49.246;7.372;2023-05-24T03:37:27;99257.13;;;11.19;76.74
47430;BME280;33181;49.246;7.372;2023-05-24T03:39:53;99242.81;;;11.23;76.55
47430;BME280;33181;49.246;7.372;2023-05-24T03:42:18;99254.50;;;11.19;75.25
47430;BME280;33181;49.246;7.372;2023-05-24T03:44:45;99259.72;;;11.07;74.90
47430;BME280;33181;49.246;7.372;2023-05-24T03:47:11;99263.59;;;10.90;75.40
47430;BME280;33181;49.246;7.372;2023-05-24T03:49:37;99271.59;;;10.89;75.92
47430;BME280;33181;49.246;7.372;2023-05-24T03:52:04;99269.56;;;10.93;75.96
47430;BME280;33181;49.246;7.372;2023-05-24T03:54:30;99267.56;;;10.96;75.60
47430;BME280;33181;49.246;7.372;2023-05-24T03:56:56;99266.13;;;11.03;75.57
47430;BME280;33181;49.246;7.372;2023-05-24T03:59:22;99268.16;;;11.00;75.24
47430;BME280;33181;49.246;7.372;2023-05-24T04:01:47;99273.88;;;10.94;75.29
47430;BME280;33181;49.246;7.372;2023-05-24T04:04:13;99280.47;;;10.99;75.53
47430;BME280;33181;49.246;7.372;2023-05-24T04:06:39;99270.78;;;11.00;75.32
47430;BME280;33181;49.246;7.372;2023-05-24T04:09:07;99276.47;;;11.18;75.49
47430;BME280;33181;49.246;7.372;2023-05-24T04:11:34;99266.03;;;11.40;74.23
47430;BME280;33181;49.246;7.372;2023-05-24T04:14:01;99272.63;;;11.46;72.21
47430;BME280;33181;49.246;7.372;2023-05-24T04:16:31;99270.84;;;11.57;72.46
47430;BME280;33181;49.246;7.372;2023-05-24T04:19:00;99273.25;;;11.72;71.38
47430;BME280;33181;49.246;7.372;2023-05-24T04:21:28;99266.81;;;11.76;70.80
47430;BME280;33181;49.246;7.372;2023-05-24T04:23:54;99266.91;;;11.74;70.58
47430;BME280;33181;49.246;7.372;2023-05-24T04:26:21;99271.56;;;11.59;70.16
47430;BME280;33181;49.246;7.372;2023-05-24T04:28:47;99270.13;;;11.55;70.40
47430;BME280;33181;49.246;7.372;2023-05-24T04:31:13;99284.56;;;11.50;71.06
47430;BME280;33181;49.246;7.372;2023-05-24T04:33:41;99286.63;;;11.69;71.36
47430;BME280;33181;49.246;7.372;2023-05-24T04:36:07;99285.75;;;11.92;71.24
47430;BME280;33181;49.246;7.372;2023-05-24T04:38:33;99289.47;;;11.90;70.51
47430;BME280;33181;49.246;7.372;2023-05-24T04:41:04;99289.16;;;11.81;70.57
47430;BME280;33181;49.246;7.372;2023-05-24T04:43:36;99286.41;;;11.60;71.18
47430;BME280;33181;49.246;7.372;2023-05-24T04:46:02;99283.63;;;11.51;71.41
47430;BME280;33181;49.246;7.372;2023-05-24T04:48:28;99279.44;;;11.48;72.32
47430;BME280;33181;49.246;7.372;2023-05-24T04:50:56;99273.03;;;11.64;72.19
47430;BME280;33181;49.246;7.372;2023-05-24T04:53:23;99277.97;;;11.91;71.66
47430;BME280;33181;49.246;7.372;2023-05-24T04:55:50;99274.88;;;12.08;70.33
47430;BME280;33181;49.246;7.372;2023-05-24T04:58:16;99266.47;;;12.25;69.94
47430;BME280;33181;49.246;7.372;2023-05-24T05:00:43;99264.84;;;12.57;68.74
47430;BME280;33181;49.246;7.372;2023-05-24T05:03:11;99271.75;;;12.80;67.52
47430;BME280;33181;49.246;7.372;2023-05-24T05:05:38;99273.25;;;12.94;66.96
47430;BME280;33181;49.246;7.372;2023-05-24T05:08:04;99273.28;;;13.15;65.83
47430;BME280;33181;49.246;7.372;2023-05-24T05:10:29;99267.97;;;13.26;64.16
47430;BME280;33181;49.246;7.372;2023-05-24T05:12:55;99265.63;;;13.12;64.94
47430;BME280;33181;49.246;7.372;2023-05-24T05:15:23;99262.91;;;13.23;63.95
47430;BME280;33181;49.246;7.372;2023-05-24T05:17:49;99269.13;;;13.33;64.27
47430;BME280;33181;49.246;7.372;2023-05-24T05:20:15;99268.03;;;13.36;64.33
47430;BME280;33181;49.246;7.372;2023-05-24T05:22:48;99271.31;;;13.28;63.39
47430;BME280;33181;49.246;7.372;2023-05-24T05:25:14;99273.50;;;13.44;63.50
47430;BME280;33181;49.246;7.372;2023-05-24T05:27:40;99269.84;;;13.56;63.29
47430;BME280;33181;49.246;7.372;2023-05-24T05:30:07;99270.28;;;13.61;62.13
47430;BME280;33181;49.246;7.372;2023-05-24T05:32:33;99265.97;;;13.60;62.24
47430;BME280;33181;49.246;7.372;2023-05-24T05:35:00;99266.63;;;13.53;62.58
47430;BME280;33181;49.246;7.372;2023-05-24T05:37:25;99268.19;;;13.34;62.32
47430;BME280;33181;49.246;7.372;2023-05-24T05:39:51;99273.91;;;13.07;62.38
47430;BME280;33181;49.246;7.372;2023-05-24T05:42:17;99282.13;;;12.38;64.37
47430;BME280;33181;49.246;7.372;2023-05-24T05:44:43;99283.69;;;12.41;65.49
47430;BME280;33181;49.246;7.372;2023-05-24T05:47:09;99282.03;;;12.28;64.17
47430;BME280;33181;49.246;7.372;2023-05-24T05:49:35;99277.00;;;12.03;64.75
47430;BME280;33181;49.246;7.372;2023-05-24T05:52:03;99284.06;;;11.91;65.51
47430;BME280;33181;49.246;7.372;2023-05-24T05:54:29;99285.03;;;12.01;64.80
47430;BME280;33181;49.246;7.372;2023-05-24T05:56:56;99292.19;;;11.88;65.10
47430;BME280;33181;49.246;7.372;2023-05-24T05:59:22;99288.84;;;11.97;64.90
47430;BME280;33181;49.246;7.372;2023-05-24T06:01:48;99293.03;;;12.00;64.41
47430;BME280;33181;49.246;7.372;2023-05-24T06:04:15;99289.09;;;12.05;64.40
47430;BME280;33181;49.246;7.372;2023-05-24T06:06:40;99286.22;;;12.09;64.22
47430;BME280;33181;49.246;7.372;2023-05-24T06:09:07;99307.03;;;12.00;64.82
47430;BME280;33181;49.246;7.372;2023-05-24T06:11:33;99291.38;;;12.10;64.99
47430;BME280;33181;49.246;7.372;2023-05-24T06:13:58;99295.41;;;12.59;64.39
47430;BME280;33181;49.246;7.372;2023-05-24T06:16:24;99293.00;;;12.99;63.09
47430;BME280;33181;49.246;7.372;2023-05-24T06:18:52;99299.59;;;13.05;61.56
47430;BME280;33181;49.246;7.372;2023-05-24T06:21:18;99299.63;;;13.26;60.60
47430;BME280;33181;49.246;7.372;2023-05-24T06:23:44;99293.63;;;12.92;61.29
47430;BME280;33181;49.246;7.372;2023-05-24T06:26:11;99297.00;;;12.83;61.75
47430;BME280;33181;49.246;7.372;2023-05-24T06:28:38;99290.53;;;12.87;62.10
47430;BME280;33181;49.246;7.372;2023-05-24T06:31:04;99296.31;;;13.13;62.23
47430;BME280;33181;49.246;7.372;2023-05-24T06:33:30;99292.31;;;13.51;60.55
47430;BME280;33181;49.246;7.372;2023-05-24T06:35:59;99297.25;;;13.65;59.20
47430;BME280;33181;49.246;7.372;2023-05-24T06:38:26;99301.06;;;13.51;59.50
47430;BME280;33181;49.246;7.372;2023-05-24T06:40:52;99310.00;;;13.60;59.99
47430;BME280;33181;49.246;7.372;2023-05-24T06:43:20;99303.44;;;13.54;60.27
47430;BME280;33181;49.246;7.372;2023-05-24T06:45:46;99306.03;;;13.65;60.09
47430;BME280;33181;49.246;7.372;2023-05-24T06:48:11;99303.34;;;13.86;58.82
47430;BME280;33181;49.246;7.372;2023-05-24T06:50:38;99307.44;;;13.90;59.05
47430;BME280;33181;49.246;7.372;2023-05-24T06:53:03;99317.72;;;13.94;59.16
47430;BME280;33181;49.246;7.372;2023-05-24T06:55:29;99317.22;;;13.79;58.77
47430;BME280;33181;49.246;7.372;2023-05-24T06:57:55;99323.16;;;14.02;58.19
47430;BME280;33181;49.246;7.372;2023-05-24T07:00:21;99313.91;;;14.48;57.15
47430;BME280;33181;49.246;7.372;2023-05-24T07:02:47;99315.22;;;14.53;57.12
47430;BME280;33181;49.246;7.372;2023-05-24T07:05:13;99322.38;;;14.11;57.62
47430;BME280;33181;49.246;7.372;2023-05-24T07:07:40;99325.81;;;14.32;57.46
47430;BME280;33181;49.246;7.372;2023-05-24T07:10:09;99320.56;;;14.42;57.57
47430;BME280;33181;49.246;7.372;2023-05-24T07:12:36;99321.22;;;14.65;55.16
47430;BME280;33181;49.246;7.372;2023-05-24T07:15:04;99325.13;;;14.80;55.62
47430;BME280;33181;49.246;7.372;2023-05-24T07:17:30;99328.81;;;15.09;56.64
47430;BME280;33181;49.246;7.372;2023-05-24T07:19:56;99329.88;;;14.87;54.37
47430;BME280;33181;49.246;7.372;2023-05-24T07:22:27;99327.38;;;14.75;54.88
47430;BME280;33181;49.246;7.372;2023-05-24T07:25:33;99325.63;;;14.55;55.61
47430;BME280;33181;49.246;7.372;2023-05-24T07:28:44;99327.50;;;14.83;54.54
47430;BME280;33181;49.246;7.372;2023-05-24T07:31:12;99324.72;;;14.75;53.48
47430;BME280;33181;49.246;7.372;2023-05-24T07:33:38;99334.22;;;14.97;53.94
47430;BME280;33181;49.246;7.372;2023-05-24T07:36:04;99337.75;;;14.27;56.07
47430;BME280;33181;49.246;7.372;2023-05-24T07:38:32;99344.59;;;14.60;55.74
47430;BME280;33181;49.246;7.372;2023-05-24T07:41:00;99335.47;;;15.03;55.75
47430;BME280;33181;49.246;7.372;2023-05-24T07:43:26;99328.69;;;15.39;53.12
47430;BME280;33181;49.246;7.372;2023-05-24T07:45:52;99330.19;;;15.51;50.87
47430;BME280;33181;49.246;7.372;2023-05-24T07:48:22;99332.00;;;15.61;50.96
47430;BME280;33181;49.246;7.372;2023-05-24T07:50:49;99338.09;;;15.90;51.00
47430;BME280;33181;49.246;7.372;2023-05-24T07:53:18;99334.94;;;16.24;49.85
47430;BME280;33181;49.246;7.372;2023-05-24T07:55:45;99339.25;;;16.25;47.92
47430;BME280;33181;49.246;7.372;2023-05-24T07:58:11;99338.38;;;15.97;48.08
47430;BME280;33181;49.246;7.372;2023-05-24T08:00:37;99343.84;;;16.23;50.23
47430;BME280;33181;49.246;7.372;2023-05-24T08:03:04;99336.03;;;15.65;48.37
47430;BME280;33181;49.246;7.372;2023-05-24T08:05:30;99344.66;;;15.57;48.79
47430;BME280;33181;49.246;7.372;2023-05-24T08:07:56;99337.44;;;15.49;47.88
47430;BME280;33181;49.246;7.372;2023-05-24T08:10:23;99350.25;;;15.44;48.69
47430;BME280;33181;49.246;7.372;2023-05-24T08:12:49;99343.28;;;15.14;49.32
47430;BME280;33181;49.246;7.372;2023-05-24T08:15:19;99341.47;;;15.24;48.41
47430;BME280;33181;49.246;7.372;2023-05-24T08:17:47;99340.38;;;15.27;48.02
47430;BME280;33181;49.246;7.372;2023-05-24T08:20:13;99334.91;;;15.38;47.71
47430;BME280;33181;49.246;7.372;2023-05-24T08:22:40;99339.94;;;15.90;47.98
47430;BME280;33181;49.246;7.372;2023-05-24T08:25:10;99338.25;;;15.79;47.53
47430;BME280;33181;49.246;7.372;2023-05-24T08:27:47;99340.09;;;16.26;48.54
47430;BME280;33181;49.246;7.372;2023-05-24T08:30:13;99345.31;;;16.45;48.19
47430;BME280;33181;49.246;7.372;2023-05-24T08:32:39;99344.91;;;16.03;44.40
47430;BME280;33181;49.246;7.372;2023-05-24T08:35:05;99342.75;;;15.69;45.32
47430;BME280;33181;49.246;7.372;2023-05-24T08:37:31;99343.97;;;15.16;47.79
47430;BME280;33181;49.246;7.372;2023-05-24T08:39:58;99340.47;;;14.96;48.89
47430;BME280;33181;49.246;7.372;2023-05-24T08:42:25;99332.41;;;15.46;48.19
47430;BME280;33181;49.246;7.372;2023-05-24T08:45:09;99344.13;;;15.34;46.91
47430;BME280;33181;49.246;7.372;2023-05-24T08:47:35;99338.53;;;15.57;44.98
47430;BME280;33181;49.246;7.372;2023-05-24T08:50:03;99340.09;;;15.49;43.07
47430;BME280;33181;49.246;7.372;2023-05-24T08:52:31;99336.88;;;15.46;43.87
47430;BME280;33181;49.246;7.372;2023-05-24T08:55:02;99349.97;;;15.47;43.40
47430;BME280;33181;49.246;7.372;2023-05-24T08:57:31;99336.06;;;15.45;44.51
47430;BME280;33181;49.246;7.372;2023-05-24T08:59:59;99345.78;;;15.84;41.68
47430;BME280;33181;49.246;7.372;2023-05-24T09:02:28;99346.63;;;15.65;41.79
47430;BME280;33181;49.246;7.372;2023-05-24T09:04:55;99343.41;;;15.90;41.51
47430;BME280;33181;49.246;7.372;2023-05-24T09:07:22;99344.41;;;15.50;41.35
47430;BME280;33181;49.246;7.372;2023-05-24T09:10:08;99352.91;;;15.44;42.13
47430;BME280;33181;49.246;7.372;2023-05-24T09:12:36;99349.31;;;15.36;41.88
47430;BME280;33181;49.246;7.372;2023-05-24T09:15:05;99330.88;;;15.44;43.72
47430;BME280;33181;49.246;7.372;2023-05-24T09:17:31;99340.63;;;15.82;41.83
47430;BME280;33181;49.246;7.372;2023-05-24T09:19:58;99352.06;;;15.44;41.90
47430;BME280;33181;49.246;7.372;2023-05-24T09:22:27;99336.03;;;15.74;41.77
47430;BME280;33181;49.246;7.372;2023-05-24T09:25:01;99345.53;;;15.67;40.87
47430;BME280;33181;49.246;7.372;2023-05-24T09:27:28;99336.53;;;15.97;41.45
47430;BME280;33181;49.246;7.372;2023-05-24T09:29:56;99342.69;;;15.98;42.37
47430;BME280;33181;49.246;7.372;2023-05-24T09:32:22;99336.84;;;15.85;41.01
47430;BME280;33181;49.246;7.372;2023-05-24T09:34:51;99340.69;;;16.10;42.31
47430;BME280;33181;49.246;7.372;2023-05-24T09:37:23;99343.47;;;16.18;40.44
47430;BME280;33181;49.246;7.372;2023-05-24T09:39:52;99336.50;;;16.07;39.99
47430;BME280;33181;49.246;7.372;2023-05-24T09:42:23;99340.00;;;16.45;40.39
47430;BME280;33181;49.246;7.372;2023-05-24T09:45:07;99330.78;;;16.77;40.86
47430;BME280;33181;49.246;7.372;2023-05-24T09:47:40;99337.28;;;17.28;42.71
47430;BME280;33181;49.246;7.372;2023-05-24T09:50:15;99322.13;;;17.82;39.38
47430;BME280;33181;49.246;7.372;2023-05-24T09:52:42;99329.91;;;17.57;39.07
47430;BME280;33181;49.246;7.372;2023-05-24T09:55:20;99328.66;;;17.70;38.77
47430;BME280;33181;49.246;7.372;2023-05-24T09:58:01;99318.22;;;17.50;37.33
47430;BME280;33181;49.246;7.372;2023-05-24T10:00:28;99329.72;;;17.77;39.00
47430;BME280;33181;49.246;7.372;2023-05-24T10:03:04;99330.28;;;17.45;39.34
47430;BME280;33181;49.246;7.372;2023-05-24T10:05:36;99312.78;;;17.78;39.76
47430;BME280;33181;49.246;7.372;2023-05-24T10:08:02;99315.88;;;17.47;40.80
47430;BME280;33181;49.246;7.372;2023-05-24T10:10:33;99314.13;;;17.38;40.68
47430;BME280;33181;49.246;7.372;2023-05-24T10:13:00;99313.72;;;17.69;40.14
47430;BME280;33181;49.246;7.372;2023-05-24T10:15:27;99312.91;;;17.94;39.37
47430;BME280;33181;49.246;7.372;2023-05-24T10:17:55;99303.78;;;17.97;39.63
47430;BME280;33181;49.246;7.372;2023-05-24T10:20:22;99307.63;;;18.02;38.44
47430;BME280;33181;49.246;7.372;2023-05-24T10:22:53;99304.31;;;17.56;37.49
47430;BME280;33181;49.246;7.372;2023-05-24T10:25:23;99303.69;;;17.80;39.20
47430;BME280;33181;49.246;7.372;2023-05-24T10:27:56;99298.66;;;17.77;38.45
47430;BME280;33181;49.246;7.372;2023-05-24T10:33:16;99295.47;;;18.26;36.76
47430;BME280;33181;49.246;7.372;2023-05-24T10:35:43;99286.75;;;17.81;36.83
47430;BME280;33181;49.246;7.372;2023-05-24T10:38:10;99290.78;;;17.68;36.87
47430;BME280;33181;49.246;7.372;2023-05-24T10:40:41;99290.38;;;17.36;36.81
47430;BME280;33181;49.246;7.372;2023-05-24T10:43:07;99285.09;;;17.19;37.11
47430;BME280;33181;49.246;7.372;2023-05-24T10:45:40;99286.13;;;17.44;37.29
47430;BME280;33181;49.246;7.372;2023-05-24T10:50:40;99284.25;;;17.80;37.09
47430;BME280;33181;49.246;7.372;2023-05-24T10:53:22;99280.84;;;17.96;37.00
47430;BME280;33181;49.246;7.372;2023-05-24T10:56:02;99287.28;;;18.62;37.45
47430;BME280;33181;49.246;7.372;2023-05-24T10:59:03;99275.25;;;19.08;37.28
47430;BME280;33181;49.246;7.372;2023-05-24T11:01:32;99277.06;;;19.73;37.29
47430;BME280;33181;49.246;7.372;2023-05-24T11:04:15;99274.91;;;19.44;36.45
47430;BME280;33181;49.246;7.372;2023-05-24T11:07:01;99273.19;;;19.92;34.96
47430;BME280;33181;49.246;7.372;2023-05-24T11:09:29;99279.94;;;20.19;35.79
47430;BME280;33181;49.246;7.372;2023-05-24T11:12:01;99274.25;;;19.75;35.53
47430;BME280;33181;49.246;7.372;2023-05-24T11:14:30;99260.84;;;18.60;35.57
47430;BME280;33181;49.246;7.372;2023-05-24T11:16:58;99268.91;;;18.42;36.33
47430;BME280;33181;49.246;7.372;2023-05-24T11:19:35;99266.03;;;18.19;36.59
47430;BME280;33181;49.246;7.372;2023-05-24T11:22:07;99272.19;;;18.79;37.46
47430;BME280;33181;49.246;7.372;2023-05-24T11:24:33;99259.44;;;19.39;35.86
47430;BME280;33181;49.246;7.372;2023-05-24T11:27:00;99258.44;;;18.99;35.55
47430;BME280;33181;49.246;7.372;2023-05-24T11:29:30;99260.44;;;19.14;36.45
47430;BME280;33181;49.246;7.372;2023-05-24T11:31:58;99264.06;;;19.54;36.77
47430;BME280;33181;49.246;7.372;2023-05-24T11:34:29;99257.38;;;19.82;34.93
47430;BME280;33181;49.246;7.372;2023-05-24T11:36:58;99263.53;;;19.83;35.22
47430;BME280;33181;49.246;7.372;2023-05-24T11:39:29;99266.78;;;20.18;34.94
47430;BME280;33181;49.246;7.372;2023-05-24T11:41:56;99258.81;;;20.01;34.52
47430;BME280;33181;49.246;7.372;2023-05-24T11:44:21;99257.09;;;19.36;34.58
47430;BME280;33181;49.246;7.372;2023-05-24T11:46:47;99264.44;;;19.34;33.83
47430;BME280;33181;49.246;7.372;2023-05-24T11:49:15;99259.41;;;19.64;33.47
47430;BME280;33181;49.246;7.372;2023-05-24T11:51:41;99266.69;;;19.95;30.30
47430;BME280;33181;49.246;7.372;2023-05-24T11:54:07;99254.09;;;20.20;31.40
47430;BME280;33181;49.246;7.372;2023-05-24T11:56:33;99265.75;;;19.47;33.67
47430;BME280;33181;49.246;7.372;2023-05-24T11:59:14;99261.03;;;18.75;32.80
47430;BME280;33181;49.246;7.372;2023-05-24T12:01:41;99257.06;;;18.87;35.41
47430;BME280;33181;49.246;7.372;2023-05-24T12:04:07;99243.13;;;19.18;35.20
47430;BME280;33181;49.246;7.372;2023-05-24T12:06:52;99255.25;;;18.80;34.30
47430;BME280;33181;49.246;7.372;2023-05-24T12:09:19;99261.34;;;18.72;33.60
47430;BME280;33181;49.246;7.372;2023-05-24T12:11:47;99251.94;;;19.02;32.62
47430;BME280;33181;49.246;7.372;2023-05-24T12:16:48;99253.75;;;19.59;32.51
47430;BME280;33181;49.246;7.372;2023-05-24T12:19:19;99253.00;;;19.98;33.19
47430;BME280;33181;49.246;7.372;2023-05-24T12:21:47;99247.25;;;20.17;31.95
47430;BME280;33181;49.246;7.372;2023-05-24T12:24:16;99255.38;;;20.32;30.60
47430;BME280;33181;49.246;7.372;2023-05-24T12:26:48;99242.28;;;20.45;30.57
47430;BME280;33181;49.246;7.372;2023-05-24T12:29:16;99241.41;;;20.61;31.31
47430;BME280;33181;49.246;7.372;2023-05-24T12:31:48;99238.56;;;20.63;30.77
47430;BME280;33181;49.246;7.372;2023-05-24T12:34:18;99239.34;;;20.40;32.03
47430;BME280;33181;49.246;7.372;2023-05-24T12:36:45;99242.06;;;19.84;32.11
47430;BME280;33181;49.246;7.372;2023-05-24T12:39:17;99235.91;;;19.59;30.82
47430;BME280;33181;49.246;7.372;2023-05-24T12:41:44;99243.28;;;19.00;33.02
47430;BME280;33181;49.246;7.372;2023-05-24T12:44:11;99248.19;;;18.62;32.42
47430;BME280;33181;49.246;7.372;2023-05-24T12:46:37;99239.28;;;18.80;32.47
47430;BME280;33181;49.246;7.372;2023-05-24T12:49:15;99242.22;;;18.60;32.81
47430;BME280;33181;49.246;7.372;2023-05-24T12:51:44;99229.09;;;18.67;34.30
47430;BME280;33181;49.246;7.372;2023-05-24T12:54:10;99225.81;;;19.14;33.63
47430;BME280;33181;49.246;7.372;2023-05-24T12:56:36;99219.13;;;19.26;34.11
47430;BME280;33181;49.246;7.372;2023-05-24T12:59:04;99222.31;;;19.05;34.34
47430;BME280;33181;49.246;7.372;2023-05-24T13:01:30;99214.66;;;18.78;34.16
47430;BME280;33181;49.246;7.372;2023-05-24T13:03:56;99205.75;;;18.44;34.87
47430;BME280;33181;49.246;7.372;2023-05-24T13:06:23;99210.00;;;18.21;35.25
47430;BME280;33181;49.246;7.372;2023-05-24T13:08:49;99216.00;;;18.31;35.56
47430;BME280;33181;49.246;7.372;2023-05-24T13:11:15;99199.00;;;18.16;35.64
47430;BME280;33181;49.246;7.372;2023-05-24T13:13:41;99201.88;;;18.30;35.47
47430;BME280;33181;49.246;7.372;2023-05-24T13:16:09;99203.09;;;18.44;36.88
47430;BME280;33181;49.246;7.372;2023-05-24T13:18:35;99197.84;;;18.93;36.19
47430;BME280;33181;49.246;7.372;2023-05-24T13:21:03;99189.34;;;19.06;35.26
47430;BME280;33181;49.246;7.372;2023-05-24T13:23:31;99187.69;;;18.97;36.10
47430;BME280;33181;49.246;7.372;2023-05-24T13:25:57;99188.22;;;18.92;35.68